createdAt,value
2018-09-29T00:02:10.334Z,60.90
2018-09-29T00:04:37.874Z,60.30
2018-09-29T00:07:05.741Z,60.30
2018-09-29T00:09:33.646Z,58.90
2018-09-29T00:12:01.461Z,60.10
2018-09-29T00:14:29.009Z,59.00
2018-09-29T00:16:56.707Z,57.50
2018-09-29T00:19:24.295Z,58.30
2018-09-29T00:21:51.824Z,58.10
2018-09-29T00:24:19.871Z,58.30
2018-09-29T00:26:47.682Z,56.40
2018-09-29T00:29:15.324Z,56.70
2018-09-29T00:31:42.858Z,58.10
2018-09-29T00:34:10.501Z,57.70
2018-09-29T00:36:38.534Z,58.00
2018-09-29T00:39:07.039Z,58.10
2018-09-29T00:41:34.629Z,58.00
2018-09-29T00:44:02.205Z,57.50
2018-09-29T00:46:29.950Z,56.70
2018-09-29T00:48:58.007Z,57.70
2018-09-29T00:51:25.963Z,57.70
2018-09-29T00:53:53.523Z,57.70
2018-09-29T00:56:21.162Z,57.80
2018-09-29T00:58:49.130Z,55.80
2018-09-29T01:01:17.357Z,56.40
2018-09-29T01:03:45.433Z,54.90
2018-09-29T01:06:12.993Z,56.60
2018-09-29T01:08:40.582Z,56.40
2018-09-29T01:11:08.546Z,57.80
2018-09-29T01:13:36.445Z,57.50
2018-09-29T01:16:04.616Z,57.00
2018-09-29T01:18:32.440Z,56.30
2018-09-29T01:21:00.026Z,55.10
2018-09-29T01:23:28.336Z,55.10
2018-09-29T01:25:56.234Z,56.60
2018-09-29T01:28:24.068Z,55.80
2018-09-29T01:30:51.993Z,55.20
2018-09-29T01:33:19.532Z,54.50
2018-09-29T01:35:47.812Z,54.20
2018-09-29T01:38:15.405Z,55.70
2018-09-29T01:40:43.194Z,55.70
2018-09-29T01:43:10.874Z,56.60
2018-09-29T01:45:39.063Z,56.10
2018-09-29T01:48:07.673Z,56.40
2018-09-29T01:50:35.466Z,57.20
2018-09-29T01:53:03.492Z,57.70
2018-09-29T01:55:33.130Z,56.60
2018-09-29T01:58:00.656Z,56.10
2018-09-29T02:00:28.411Z,56.30
2018-09-29T02:02:57.025Z,57.00
2018-09-29T02:05:24.721Z,57.40
2018-09-29T02:07:52.505Z,58.10
2018-09-29T02:10:20.001Z,57.80
2018-09-29T02:12:47.619Z,59.00
2018-09-29T02:15:15.286Z,58.30
2018-09-29T02:17:42.917Z,58.00
2018-09-29T02:20:10.555Z,58.70
2018-09-29T02:22:38.152Z,58.70
2018-09-29T02:25:05.824Z,58.70
2018-09-29T02:27:33.574Z,58.40
2018-09-29T02:30:01.300Z,58.90
2018-09-29T02:32:28.824Z,59.90
2018-09-29T02:34:56.387Z,60.50
2018-09-29T02:37:23.990Z,60.50
2018-09-29T02:39:51.697Z,59.60
2018-09-29T02:42:19.345Z,59.00
2018-09-29T02:44:46.951Z,60.30
2018-09-29T02:47:14.591Z,59.60
2018-09-29T02:49:42.127Z,61.20
2018-09-29T02:52:09.677Z,60.10
2018-09-29T02:54:37.354Z,59.20
2018-09-29T02:57:05.028Z,60.30
2018-09-29T02:59:32.648Z,59.60
2018-09-29T03:02:00.233Z,60.50
2018-09-29T03:04:27.798Z,59.80
2018-09-29T03:06:55.420Z,59.00
2018-09-29T03:09:22.944Z,59.90
2018-09-29T03:11:50.500Z,60.30
2018-09-29T03:14:18.240Z,59.80
2018-09-29T03:16:45.792Z,59.60
2018-09-29T03:19:13.355Z,59.90
2018-09-29T03:21:40.895Z,60.50
2018-09-29T03:24:08.570Z,60.10
2018-09-29T03:26:37.294Z,59.90
2018-09-29T03:29:04.864Z,60.50
2018-09-29T03:31:32.428Z,62.50
2018-09-29T03:34:00.049Z,63.10
2018-09-29T03:36:27.711Z,63.80
2018-09-29T03:38:55.445Z,64.20
2018-09-29T03:41:23.036Z,65.00
2018-09-29T03:43:50.614Z,64.60
2018-09-29T03:46:18.396Z,65.00
2018-09-29T03:48:45.923Z,65.50
2018-09-29T03:51:13.457Z,66.10
2018-09-29T03:53:41.143Z,65.70
2018-09-29T03:56:08.577Z,65.90
2018-09-29T03:58:36.145Z,65.50
2018-09-29T04:01:03.716Z,65.50
2018-09-29T04:03:31.279Z,65.50
2018-09-29T04:05:58.797Z,65.90
2018-09-29T04:08:26.347Z,66.30
2018-09-29T04:10:53.958Z,66.40
2018-09-29T04:13:21.534Z,66.60
2018-09-29T04:15:49.040Z,66.40
2018-09-29T04:18:16.571Z,67.00
2018-09-29T04:20:44.146Z,66.60
2018-09-29T04:23:11.735Z,67.00
2018-09-29T04:25:39.260Z,67.40
2018-09-29T04:28:06.825Z,67.70
2018-09-29T04:30:34.361Z,67.60
2018-09-29T04:33:01.972Z,66.80
2018-09-29T04:35:29.484Z,67.90
2018-09-29T04:37:57.080Z,67.70
2018-09-29T04:40:24.614Z,68.50
2018-09-29T04:42:52.157Z,70.20
2018-09-29T04:45:19.838Z,70.20
2018-09-29T04:47:47.690Z,71.30
2018-09-29T04:50:15.204Z,70.50
2018-09-29T04:52:42.755Z,71.50
2018-09-29T04:55:10.302Z,71.80
2018-09-29T04:57:37.921Z,71.80
2018-09-29T05:00:05.537Z,70.40
2018-09-29T05:02:33.230Z,69.40
2018-09-29T05:05:00.858Z,68.90
2018-09-29T05:07:28.739Z,68.90
2018-09-29T05:09:56.358Z,67.90
2018-09-29T05:12:23.895Z,67.60
2018-09-29T05:14:52.854Z,67.40
2018-09-29T05:17:22.707Z,67.70
2018-09-29T05:19:50.268Z,67.70
2018-09-29T05:22:17.921Z,67.40
2018-09-29T05:24:45.498Z,67.40
2018-09-29T05:27:13.043Z,67.40
2018-09-29T05:29:40.626Z,68.50
2018-09-29T05:32:08.237Z,67.90
2018-09-29T05:34:35.785Z,68.30
2018-09-29T05:37:03.348Z,68.10
2018-09-29T05:39:30.888Z,69.60
2018-09-29T05:41:58.609Z,68.70
2018-09-29T05:44:26.157Z,68.70
2018-09-29T05:46:53.704Z,68.30
2018-09-29T05:49:21.266Z,67.70
2018-09-29T05:51:48.828Z,68.10
2018-09-29T05:54:16.407Z,64.80
2018-09-29T05:56:43.961Z,66.10
2018-09-29T05:59:12.249Z,60.90
2018-09-29T06:01:39.768Z,60.50
2018-09-29T06:04:07.326Z,59.60
2018-09-29T06:06:34.879Z,55.70
2018-09-29T06:09:03.948Z,55.20
2018-09-29T06:11:31.496Z,54.60
2018-09-29T06:13:59.073Z,51.30
2018-09-29T06:16:26.611Z,53.70
2018-09-29T06:18:54.215Z,52.50
2018-09-29T06:21:21.735Z,51.00
2018-09-29T06:23:49.308Z,50.50
2018-09-29T06:26:16.908Z,50.20
2018-09-29T06:28:44.431Z,49.10
2018-09-29T06:31:12.135Z,49.70
2018-09-29T06:33:39.925Z,48.40
2018-09-29T06:36:07.628Z,47.00
2018-09-29T06:38:35.422Z,46.10
2018-09-29T06:41:02.936Z,45.00
2018-09-29T06:43:30.500Z,45.50
2018-09-29T06:45:58.001Z,42.90
2018-09-29T06:48:25.576Z,42.70
2018-09-29T06:50:53.155Z,41.70
2018-09-29T06:53:20.754Z,42.70
2018-09-29T06:55:48.477Z,42.00
2018-09-29T06:58:15.990Z,42.40
2018-09-29T07:00:43.576Z,41.20
2018-09-29T07:03:11.172Z,38.30
2018-09-29T07:05:38.696Z,35.60
2018-09-29T07:08:06.236Z,33.90
2018-09-29T07:10:33.878Z,34.50
2018-09-29T07:13:01.466Z,35.10
2018-09-29T07:15:29.016Z,31.60
2018-09-29T07:17:56.566Z,31.50
2018-09-29T07:20:24.163Z,32.70
2018-09-29T07:22:51.683Z,33.10
2018-09-29T07:25:19.291Z,31.80
2018-09-29T07:27:46.993Z,31.50
2018-09-29T07:30:14.534Z,33.10
2018-09-29T07:32:42.068Z,34.20
2018-09-29T07:35:10.389Z,32.70
2018-09-29T07:37:37.947Z,32.80
2018-09-29T07:40:05.852Z,32.40
2018-09-29T07:42:33.391Z,34.70
2018-09-29T07:45:00.938Z,33.10
2018-09-29T07:47:28.464Z,32.80
2018-09-29T07:49:56.074Z,30.10
2018-09-29T07:52:23.663Z,30.20
2018-09-29T07:54:51.282Z,29.30
2018-09-29T07:57:18.958Z,29.50
2018-09-29T07:59:46.500Z,28.90
2018-09-29T08:02:14.023Z,29.30
2018-09-29T08:04:41.565Z,29.80
2018-09-29T08:07:09.155Z,29.50
2018-09-29T08:09:36.684Z,29.00
2018-09-29T08:12:04.451Z,28.60
2018-09-29T08:14:32.022Z,28.40
2018-09-29T08:16:59.596Z,28.20
2018-09-29T08:19:27.140Z,26.50
2018-09-29T08:21:55.081Z,26.50
2018-09-29T08:24:22.758Z,24.80
2018-09-29T08:26:50.297Z,24.40
2018-09-29T08:29:18.003Z,23.90
2018-09-29T08:31:45.652Z,23.30
2018-09-29T08:34:13.200Z,22.60
2018-09-29T08:36:40.767Z,22.90
2018-09-29T08:39:09.135Z,23.90
2018-09-29T08:41:36.680Z,22.20
2018-09-29T08:44:04.272Z,24.80
2018-09-29T08:46:31.985Z,25.10
2018-09-29T08:48:59.559Z,25.00
2018-09-29T08:51:27.172Z,25.70
2018-09-29T08:53:54.760Z,24.70
2018-09-29T08:56:22.304Z,25.60
2018-09-29T08:58:49.876Z,24.30
2018-09-29T09:01:17.756Z,24.30
2018-09-29T09:03:45.356Z,22.30
2018-09-29T09:06:13.104Z,22.40
2018-09-29T09:08:40.786Z,20.50
2018-09-29T09:11:08.481Z,21.40
2018-09-29T09:13:36.297Z,21.90
2018-09-29T09:16:04.296Z,22.50
2018-09-29T09:18:31.974Z,23.30
2018-09-29T09:20:59.727Z,22.10
2018-09-29T09:23:27.394Z,22.50
2018-09-29T09:25:55.136Z,24.70
2018-09-29T09:28:22.771Z,23.60
2018-09-29T09:30:50.458Z,21.90
2018-09-29T09:33:18.068Z,22.10
2018-09-29T09:35:45.695Z,23.90
2018-09-29T09:38:13.268Z,22.30
2018-09-29T09:40:40.928Z,22.20
2018-09-29T09:43:09.028Z,21.10
2018-09-29T09:45:36.644Z,20.80
2018-09-29T09:48:04.200Z,21.00
2018-09-29T09:50:32.377Z,21.90
2018-09-29T09:53:00.050Z,22.60
2018-09-29T09:55:27.800Z,24.00
2018-09-29T09:57:55.416Z,23.10
2018-09-29T10:00:27.500Z,21.90
2018-09-29T10:03:00.881Z,21.70
2018-09-29T10:05:28.537Z,20.90
2018-09-29T10:07:56.160Z,19.90
2018-09-29T10:10:23.829Z,21.80
2018-09-29T10:12:51.603Z,20.40
2018-09-29T10:15:19.330Z,20.00
2018-09-29T10:17:46.903Z,20.50
2018-09-29T10:20:14.528Z,20.60
2018-09-29T10:22:42.333Z,23.00
2018-09-29T10:25:10.549Z,23.00
2018-09-29T10:27:38.210Z,23.70
2018-09-29T10:30:06.495Z,22.70
2018-09-29T10:32:34.065Z,21.60
2018-09-29T10:35:01.765Z,21.20
2018-09-29T10:37:29.391Z,19.70
2018-09-29T10:39:56.944Z,19.40
2018-09-29T10:42:24.456Z,20.30
2018-09-29T10:44:52.013Z,21.40
2018-09-29T10:47:19.627Z,19.70
2018-09-29T10:49:47.196Z,19.90
2018-09-29T10:52:14.863Z,21.30
2018-09-29T10:54:42.433Z,19.50
2018-09-29T10:57:10.012Z,19.00
2018-09-29T10:59:37.562Z,19.80
2018-09-29T11:02:05.378Z,19.30
2018-09-29T11:04:32.966Z,18.40
2018-09-29T11:07:00.502Z,17.50
2018-09-29T11:09:28.144Z,19.10
2018-09-29T11:11:55.703Z,18.50
2018-09-29T11:14:23.426Z,17.60
2018-09-29T11:16:50.992Z,18.50
2018-09-29T11:19:18.872Z,19.70
2018-09-29T11:21:46.633Z,20.20
2018-09-29T11:24:14.410Z,19.50
2018-09-29T11:26:42.060Z,19.00
2018-09-29T11:29:09.737Z,17.40
2018-09-29T11:31:37.374Z,18.50
2018-09-29T11:34:05.252Z,17.40
2018-09-29T11:36:32.774Z,18.00
2018-09-29T11:39:00.477Z,17.50
2018-09-29T11:41:28.219Z,17.70
2018-09-29T11:43:55.863Z,15.90
2018-09-29T11:46:23.536Z,17.40
2018-09-29T11:48:51.122Z,19.40
2018-09-29T11:51:18.816Z,17.90
2018-09-29T11:53:46.432Z,17.30
2018-09-29T11:56:14.134Z,17.50
2018-09-29T11:58:41.748Z,17.90
2018-09-29T12:01:09.402Z,17.10
2018-09-29T12:03:37.068Z,16.80
2018-09-29T12:06:04.841Z,16.30
2018-09-29T12:08:32.535Z,16.30
2018-09-29T12:11:00.137Z,16.00
2018-09-29T12:13:27.799Z,17.00
2018-09-29T12:15:55.392Z,16.30
2018-09-29T12:18:23.025Z,16.30
2018-09-29T12:20:50.576Z,16.90
2018-09-29T12:23:18.289Z,17.50
2018-09-29T12:25:45.890Z,17.60
2018-09-29T12:28:13.598Z,18.10
2018-09-29T12:30:41.244Z,18.40
2018-09-29T12:33:09.046Z,18.60
2018-09-29T12:35:36.737Z,18.60
2018-09-29T12:38:04.557Z,17.30
2018-09-29T12:40:32.222Z,15.80
2018-09-29T12:42:59.867Z,16.00
2018-09-29T12:45:27.447Z,17.00
2018-09-29T12:47:55.211Z,17.40
2018-09-29T12:50:22.868Z,18.20
2018-09-29T12:52:50.640Z,18.20
2018-09-29T12:55:18.466Z,18.00
2018-09-29T12:57:46.010Z,16.70
2018-09-29T13:00:13.704Z,17.30
2018-09-29T13:02:41.293Z,17.70
2018-09-29T13:05:09.752Z,16.90
2018-09-29T13:07:37.289Z,18.00
2018-09-29T13:10:05.667Z,17.40
2018-09-29T13:12:33.392Z,17.90
2018-09-29T13:15:01.001Z,17.30
2018-09-29T13:17:28.707Z,16.80
2018-09-29T13:19:56.349Z,18.60
2018-09-29T13:22:24.127Z,15.40
2018-09-29T13:24:51.808Z,15.50
2018-09-29T13:27:19.644Z,17.10
2018-09-29T13:29:47.228Z,18.90
2018-09-29T13:32:14.853Z,19.00
2018-09-29T13:34:42.652Z,18.20
2018-09-29T13:37:10.252Z,18.90
2018-09-29T13:39:37.819Z,19.80
2018-09-29T13:42:05.533Z,19.60
2018-09-29T13:44:33.162Z,19.80
2018-09-29T13:47:00.742Z,18.80
2018-09-29T13:49:28.317Z,17.10
2018-09-29T13:51:55.902Z,18.00
2018-09-29T13:54:23.453Z,17.80
2018-09-29T13:56:51.020Z,18.30
2018-09-29T13:59:18.711Z,18.40
2018-09-29T14:01:46.301Z,19.50
2018-09-29T14:04:14.064Z,20.10
2018-09-29T14:06:41.753Z,20.30
2018-09-29T14:09:10.118Z,20.10
2018-09-29T14:11:38.088Z,20.80
2018-09-29T14:14:06.361Z,21.20
2018-09-29T14:16:34.008Z,19.70
2018-09-29T14:19:01.874Z,20.00
2018-09-29T14:21:29.626Z,18.90
2018-09-29T14:23:57.171Z,19.00
2018-09-29T14:26:24.856Z,19.30
2018-09-29T14:28:52.544Z,19.00
2018-09-29T14:31:20.277Z,19.40
2018-09-29T14:33:47.875Z,20.20
2018-09-29T14:36:15.562Z,20.40
2018-09-29T14:38:43.096Z,20.80
2018-09-29T14:41:10.665Z,19.70
2018-09-29T14:43:38.294Z,19.40
2018-09-29T14:46:06.186Z,19.60
2018-09-29T14:48:33.837Z,18.90
2018-09-29T14:51:01.411Z,18.90
2018-09-29T14:53:29.170Z,18.60
2018-09-29T14:55:57.032Z,18.70
2018-09-29T14:58:24.680Z,17.20
2018-09-29T15:00:52.277Z,17.50
2018-09-29T15:03:19.940Z,16.10
2018-09-29T15:05:47.688Z,16.40
2018-09-29T15:08:15.483Z,17.00
2018-09-29T15:10:43.025Z,18.10
2018-09-29T15:13:10.664Z,19.10
2018-09-29T15:15:38.412Z,18.80
2018-09-29T15:18:06.277Z,19.40
2018-09-29T15:20:33.889Z,19.80
2018-09-29T15:23:01.364Z,19.90
2018-09-29T15:25:29.204Z,18.40
2018-09-29T15:27:56.856Z,19.10
2018-09-29T15:30:24.417Z,18.90
2018-09-29T15:32:52.038Z,19.80
2018-09-29T15:35:19.656Z,19.70
2018-09-29T15:37:47.352Z,20.00
2018-09-29T15:40:14.965Z,20.60
2018-09-29T15:42:42.641Z,20.70
2018-09-29T15:45:10.174Z,20.20
2018-09-29T15:47:37.763Z,18.50
2018-09-29T15:50:05.826Z,19.80
2018-09-29T15:52:33.509Z,20.20
2018-09-29T15:55:01.385Z,19.40
2018-09-29T15:57:29.057Z,20.50
2018-09-29T15:59:56.675Z,21.10
2018-09-29T16:02:24.349Z,22.20
2018-09-29T16:04:52.041Z,21.90
2018-09-29T16:07:19.741Z,22.60
2018-09-29T16:09:47.782Z,22.50
2018-09-29T16:12:15.377Z,21.60
2018-09-29T16:14:43.007Z,22.10
2018-09-29T16:17:10.837Z,22.10
2018-09-29T16:19:38.560Z,22.60
2018-09-29T16:22:06.244Z,23.60
2018-09-29T16:24:33.901Z,23.70
2018-09-29T16:27:01.488Z,23.70
2018-09-29T16:29:29.028Z,24.70
2018-09-29T16:31:56.702Z,25.10
2018-09-29T16:34:24.353Z,24.50
2018-09-29T16:36:52.051Z,23.80
2018-09-29T16:39:19.677Z,24.10
2018-09-29T16:41:47.320Z,25.00
2018-09-29T16:44:15.001Z,24.50
2018-09-29T16:46:42.713Z,26.30
2018-09-29T16:49:10.230Z,26.10
2018-09-29T16:51:37.831Z,27.10
2018-09-29T16:54:05.440Z,27.80
2018-09-29T16:56:33.195Z,28.70
2018-09-29T16:59:00.883Z,29.00
2018-09-29T17:01:28.628Z,31.30
2018-09-29T17:03:56.224Z,31.30
2018-09-29T17:08:58.082Z,33.30
2018-09-29T17:11:25.729Z,35.30
2018-09-29T17:13:53.383Z,35.70
2018-09-29T17:16:21.124Z,36.20
2018-09-29T17:18:48.821Z,37.10
2018-09-29T17:21:16.493Z,36.60
2018-09-29T17:23:44.072Z,36.30
2018-09-29T17:26:11.911Z,38.90
2018-09-29T17:28:39.576Z,37.70
2018-09-29T17:31:07.277Z,39.40
2018-09-29T17:33:35.126Z,38.80
2018-09-29T17:36:02.858Z,40.60
2018-09-29T17:38:30.502Z,40.90
2018-09-29T17:40:58.364Z,42.30
2018-09-29T17:43:26.009Z,41.20
2018-09-29T17:45:53.706Z,41.50
2018-09-29T17:48:21.357Z,40.00
2018-09-29T17:50:48.904Z,40.60
2018-09-29T17:53:16.664Z,41.20
2018-09-29T17:55:44.382Z,41.50
2018-09-29T17:58:12.037Z,42.60
2018-09-29T18:00:39.675Z,43.80
2018-09-29T18:03:07.357Z,44.90
2018-09-29T18:05:35.223Z,46.10
2018-09-29T18:08:02.852Z,46.40
2018-09-29T18:10:30.365Z,46.10
2018-09-29T18:12:58.073Z,47.90
2018-09-29T18:15:25.737Z,49.90
2018-09-29T18:17:53.346Z,49.40
2018-09-29T18:20:20.947Z,51.40
2018-09-29T18:22:48.687Z,51.10
2018-09-29T18:25:16.637Z,52.80
2018-09-29T18:27:44.177Z,52.20
2018-09-29T18:30:11.740Z,52.00
2018-09-29T18:32:41.261Z,54.50
2018-09-29T18:35:08.829Z,55.80
2018-09-29T18:37:36.489Z,55.10
2018-09-29T18:40:04.480Z,54.00
2018-09-29T18:42:32.458Z,53.10
2018-09-29T18:45:00.381Z,54.80
2018-09-29T18:47:27.937Z,56.90
2018-09-29T18:49:55.744Z,62.20
2018-09-29T18:52:23.383Z,61.60
2018-09-29T18:54:51.477Z,59.60
2018-09-29T18:57:20.175Z,59.50
2018-09-29T18:59:48.164Z,58.10
2018-09-29T19:02:15.820Z,59.80
2018-09-29T19:04:43.984Z,58.90
2018-09-29T19:07:11.629Z,59.90
2018-09-29T19:09:40.059Z,61.20
2018-09-29T19:12:07.717Z,62.70
2018-09-29T19:14:35.395Z,62.20
2018-09-29T19:17:03.126Z,63.30
2018-09-29T19:19:30.841Z,63.70
2018-09-29T19:21:58.517Z,65.50
2018-09-29T19:24:26.408Z,66.10
2018-09-29T19:26:54.124Z,67.00
2018-09-29T19:29:21.743Z,66.30
2018-09-29T19:31:49.356Z,67.20
2018-09-29T19:34:16.963Z,67.00
2018-09-29T19:36:44.708Z,68.90
2018-09-29T19:39:12.340Z,68.30
2018-09-29T19:41:40.131Z,69.10
2018-09-29T19:44:07.754Z,68.30
2018-09-29T19:46:35.324Z,69.40
2018-09-29T19:49:03.010Z,70.50
2018-09-29T19:51:30.796Z,71.10
2018-09-29T19:53:58.410Z,71.70
2018-09-29T19:56:25.947Z,73.00
2018-09-29T19:58:53.564Z,73.90
2018-09-29T20:01:21.160Z,73.20
2018-09-29T20:03:49.141Z,74.10
2018-09-29T20:06:16.772Z,74.60
2018-09-29T20:08:44.586Z,75.00
2018-09-29T20:11:12.463Z,75.00
2018-09-29T20:13:40.228Z,75.60
2018-09-29T20:16:08.007Z,76.10
2018-09-29T20:18:35.594Z,76.10
2018-09-29T20:21:03.129Z,76.50
2018-09-29T20:23:30.669Z,77.10
2018-09-29T20:25:58.243Z,78.60
2018-09-29T20:28:25.811Z,79.30
2018-09-29T20:30:53.440Z,79.10
2018-09-29T20:33:21.206Z,77.60
2018-09-29T20:35:48.766Z,79.30
2018-09-29T20:38:16.334Z,78.90
2018-09-29T20:40:44.098Z,78.60
2018-09-29T20:43:11.965Z,79.50
2018-09-29T20:45:39.524Z,78.70
2018-09-29T20:48:07.155Z,80.40
2018-09-29T20:50:35.040Z,81.20
2018-09-29T20:53:02.712Z,81.70
2018-09-29T20:55:30.556Z,81.50
2018-09-29T20:57:58.304Z,82.10
2018-09-29T21:00:25.993Z,87.10
2018-09-29T21:02:53.893Z,83.60
2018-09-29T21:05:21.497Z,81.70
2018-09-29T21:07:49.479Z,81.00
2018-09-29T21:10:17.157Z,81.20
2018-09-29T21:12:44.853Z,81.70
2018-09-29T21:15:12.448Z,88.10
2018-09-29T21:17:40.359Z,83.60
2018-09-29T21:20:08.316Z,82.10
2018-09-29T21:22:36.015Z,81.70
2018-09-29T21:25:03.676Z,81.90
2018-09-29T21:27:31.382Z,82.10
2018-09-29T21:29:59.056Z,82.50
2018-09-29T21:32:26.669Z,82.70
2018-09-29T21:34:54.417Z,82.70
2018-09-29T21:37:21.987Z,82.30
2018-09-29T21:39:49.604Z,82.10
2018-09-29T21:42:17.281Z,81.50
2018-09-29T21:44:44.956Z,82.30
2018-09-29T21:47:12.581Z,83.20
2018-09-29T21:49:40.132Z,83.00
2018-09-29T21:52:07.685Z,83.60
2018-09-29T21:54:35.303Z,82.70
2018-09-29T21:57:02.927Z,82.50
2018-09-29T21:59:30.611Z,82.30
2018-09-29T22:01:58.232Z,81.90
2018-09-29T22:04:26.164Z,83.00
2018-09-29T22:06:53.667Z,82.50
2018-09-29T22:09:22.492Z,83.00
2018-09-29T22:11:50.782Z,84.00
2018-09-29T22:14:18.473Z,82.80
2018-09-29T22:16:46.041Z,83.40
2018-09-29T22:19:13.845Z,82.30
2018-09-29T22:21:41.514Z,82.50
2018-09-29T22:24:09.465Z,83.80
2018-09-29T22:26:37.145Z,84.00
2018-09-29T22:29:05.224Z,83.60
2018-09-29T22:31:32.868Z,84.70
2018-09-29T22:34:07.301Z,84.00
2018-09-29T22:36:34.948Z,84.00
2018-09-29T22:39:03.249Z,84.30
2018-09-29T22:41:30.907Z,84.50
2018-09-29T22:43:58.519Z,84.50
2018-09-29T22:46:26.300Z,84.90
2018-09-29T22:48:53.949Z,84.70
2018-09-29T22:51:21.503Z,84.90
2018-09-29T22:53:49.227Z,85.60
2018-09-29T22:56:16.875Z,86.00
2018-09-29T22:58:44.424Z,85.50
2018-09-29T23:01:11.960Z,85.30
2018-09-29T23:03:39.663Z,86.00
2018-09-29T23:06:07.199Z,86.00
2018-09-29T23:08:34.730Z,85.50
2018-09-29T23:11:02.589Z,85.10
2018-09-29T23:13:30.327Z,84.10
2018-09-29T23:15:57.928Z,85.10
2018-09-29T23:18:25.744Z,85.30
2018-09-29T23:20:53.389Z,85.10
2018-09-29T23:23:21.032Z,83.60
2018-09-29T23:25:48.579Z,82.70
2018-09-29T23:28:16.137Z,83.00
2018-09-29T23:30:43.825Z,83.00
2018-09-29T23:33:11.646Z,83.20
2018-09-29T23:35:39.358Z,83.60
2018-09-29T23:38:07.116Z,82.80
2018-09-29T23:40:34.780Z,82.50
2018-09-29T23:43:02.423Z,82.70
2018-09-29T23:45:30.060Z,83.20
2018-09-29T23:47:57.636Z,83.60
2018-09-29T23:50:25.650Z,84.50
2018-09-29T23:52:53.407Z,84.70
2018-09-29T23:55:21.204Z,84.70
2018-09-29T23:57:48.788Z,85.30
